sim
Sign-in with your pilot id or email,
or register
Callsign
Passwort

Schedule Details

Flight Number: DLH1976 (2)
Departure: Munich Airport (EDDM) at 09:55
Arrival: Luqa Malta International Airport (LMML) at 12:10
Route: Lufthansa Passenger Schedule. Enter filed route here before submitting Pirep.

Weather Information
Getting current METAR information for EDDM 250150Z 27005KT 9999 -RA FEW011 SCT040 13/12 Q1002 TEMPO RA BKN008
Getting current METAR information for LMML 250215Z 18006KT CAVOK 24/22 Q1014 NOSIG

Schedule Frequency

Route Map